Time;durP1;ratioP1;P1;durP2;ratioP2;P2;SDS_P1;SDS_P2;PMS_P1;PMS_P2;Temp;Humidity;BMP_temperature;BMP_pressure;BME280_temperature;BME280_humidity;BME280_pressure;Samples;Min_cycle;Max_cycle;Signal;HPM_P1;HPM_P2
2023/03/10 00:00:39;;;;;;;15.17;8.73;;;;;;;0.76;100.00;98423.78;4953831;29;20208;-83
2023/03/10 00:03:06;;;;;;;16.63;8.53;;;;;;;0.78;100.00;98417.53;4953633;28;20208;-84
2023/03/10 00:05:32;;;;;;;13.00;7.73;;;;;;;0.78;100.00;98408.81;4943124;28;20206;-83
2023/03/10 00:07:59;;;;;;;13.83;7.87;;;;;;;0.78;100.00;98400.94;4954637;28;20676;-84
2023/03/10 00:10:25;;;;;;;11.77;7.87;;;;;;;0.80;100.00;98401.72;4948216;28;20618;-84
2023/03/10 00:12:53;;;;;;;13.33;7.73;;;;;;;0.79;100.00;98387.75;4949185;28;20225;-82
2023/03/10 00:15:20;;;;;;;12.57;7.97;;;;;;;0.80;100.00;98383.38;4942553;29;20210;-84
2023/03/10 00:17:48;;;;;;;13.57;7.83;;;;;;;0.81;100.00;98374.56;4952147;28;20252;-83
2023/03/10 00:20:15;;;;;;;11.70;7.63;;;;;;;0.80;100.00;98358.00;4945753;29;20225;-84
2023/03/10 00:22:42;;;;;;;14.13;8.37;;;;;;;0.81;100.00;98353.63;4953071;28;20679;-84
2023/03/10 00:25:10;;;;;;;12.60;8.07;;;;;;;0.80;100.00;98350.16;4953044;28;20233;-84
2023/03/10 00:27:36;;;;;;;18.27;8.77;;;;;;;0.79;100.00;98358.94;4948942;28;20248;-83
2023/03/10 00:30:05;;;;;;;14.20;8.73;;;;;;;0.79;100.00;98350.25;4948085;28;20580;-83
2023/03/10 00:32:33;;;;;;;15.87;8.97;;;;;;;0.79;100.00;98339.75;4953068;29;20571;-82
2023/03/10 00:35:00;;;;;;;13.77;8.97;;;;;;;0.78;100.00;98333.69;4960927;28;20232;-83
2023/03/10 00:37:26;;;;;;;14.10;8.97;;;;;;;0.77;100.00;98326.75;4957166;28;20229;-84
2023/03/10 00:39:54;;;;;;;14.80;8.20;;;;;;;0.77;100.00;98325.91;4957362;28;20204;-83
2023/03/10 00:42:21;;;;;;;13.97;8.23;;;;;;;0.76;100.00;98318.97;4945833;28;20656;-83
2023/03/10 00:44:47;;;;;;;14.47;8.50;;;;;;;0.75;100.00;98327.78;4956870;28;20300;-83
2023/03/10 00:47:15;;;;;;;16.23;8.73;;;;;;;0.75;100.00;98322.53;4946757;29;20228;-84
2023/03/10 00:49:41;;;;;;;14.10;7.77;;;;;;;0.75;100.00;98318.13;4948063;28;20209;-83
2023/03/10 00:52:08;;;;;;;13.43;8.90;;;;;;;0.73;100.00;98316.53;4948097;28;20223;-84
2023/03/10 00:54:34;;;;;;;15.80;8.63;;;;;;;0.73;100.00;98303.44;4949451;28;20309;-84
2023/03/10 00:57:01;;;;;;;14.13;8.67;;;;;;;0.73;100.00;98306.91;4949475;28;20240;-84
2023/03/10 00:59:28;;;;;;;16.20;8.80;;;;;;;0.71;100.00;98302.72;4951977;28;20211;-84
2023/03/10 01:01:54;;;;;;;12.87;8.20;;;;;;;0.73;100.00;98296.44;4955604;28;20213;-85
2023/03/10 01:04:22;;;;;;;15.30;9.33;;;;;;;0.72;100.00;98288.69;4953394;28;20209;-84
2023/03/10 01:06:49;;;;;;;13.60;8.17;;;;;;;0.73;100.00;98280.72;4949561;28;20232;-84
2023/03/10 01:09:16;;;;;;;17.53;9.07;;;;;;;0.73;100.00;98275.47;4956085;28;20628;-83
2023/03/10 01:11:43;;;;;;;14.63;8.43;;;;;;;0.75;100.00;98270.13;4951476;28;20221;-84
2023/03/10 01:14:13;;;;;;;14.13;8.57;;;;;;;0.75;100.00;98263.13;4955946;28;20263;-83
2023/03/10 01:16:40;;;;;;;13.63;8.63;;;;;;;0.75;100.00;98254.41;4956075;28;20236;-83
2023/03/10 01:19:06;;;;;;;16.93;8.93;;;;;;;0.75;100.00;98247.41;4949950;28;20708;-83
2023/03/10 01:21:36;;;;;;;14.40;8.43;;;;;;;0.75;100.00;98242.16;4954423;28;20193;-83
2023/03/10 01:24:04;;;;;;;13.77;7.90;;;;;;;0.75;100.00;98238.69;4948882;28;20213;-83
2023/03/10 01:26:31;;;;;;;13.80;8.47;;;;;;;0.77;100.00;98226.34;4952449;28;20228;-83
2023/03/10 01:28:57;;;;;;;14.03;8.17;;;;;;;0.77;100.00;98227.19;4950848;28;20213;-83
2023/03/10 01:31:24;;;;;;;12.97;8.37;;;;;;;0.79;100.00;98221.88;4954734;28;20220;-83
2023/03/10 01:33:50;;;;;;;13.87;8.17;;;;;;;0.78;100.00;98214.94;4951458;28;20223;-83
2023/03/10 01:36:20;;;;;;;12.10;8.57;;;;;;;0.78;100.00;98201.84;4953619;28;20625;-83
2023/03/10 01:38:49;;;;;;;12.63;7.97;;;;;;;0.78;100.00;98193.97;4946719;29;20828;-83
2023/03/10 01:41:17;;;;;;;12.77;8.20;;;;;;;0.76;100.00;98178.34;4949729;28;20208;-83
2023/03/10 01:43:45;;;;;;;16.03;9.00;;;;;;;0.76;100.00;98183.59;4956968;28;20208;-83
2023/03/10 01:46:36;;;;;;;14.97;8.63;;;;;;;0.75;100.00;98168.81;4958855;28;20224;-83
2023/03/10 01:49:06;;;;;;;13.30;8.17;;;;;;;0.75;100.00;98160.09;4944881;28;20201;-82
2023/03/10 01:51:35;;;;;;;13.10;8.20;;;;;;;0.75;100.00;98157.50;4958863;28;20209;-82
2023/03/10 01:54:09;;;;;;;12.40;8.00;;;;;;;0.74;100.00;98158.44;4954671;28;20220;-83
2023/03/10 01:56:37;;;;;;;13.20;8.20;;;;;;;0.74;100.00;98154.03;4950620;28;20566;-83
2023/03/10 01:59:04;;;;;;;12.83;8.03;;;;;;;0.72;100.00;98140.19;4956767;28;20247;-82
2023/03/10 02:01:31;;;;;;;15.13;9.23;;;;;;;0.72;100.00;98134.94;4953682;28;20610;-83
2023/03/10 02:04:01;;;;;;;16.00;8.50;;;;;;;0.72;100.00;98129.72;4953481;28;20213;-83
2023/03/10 02:06:29;;;;;;;12.70;8.27;;;;;;;0.73;100.00;98120.06;4948065;28;20232;-82
2023/03/10 02:08:59;;;;;;;16.10;8.67;;;;;;;0.74;100.00;98119.13;4964376;28;20213;-82
2023/03/10 02:11:27;;;;;;;17.73;9.17;;;;;;;0.72;100.00;98102.69;4957224;28;20792;-83
2023/03/10 02:13:55;;;;;;;14.27;8.67;;;;;;;0.72;100.00;98107.94;4957476;28;20210;-83
2023/03/10 02:16:22;;;;;;;14.83;8.63;;;;;;;0.73;100.00;98102.56;4952702;28;20231;-83
2023/03/10 02:18:49;;;;;;;15.60;8.43;;;;;;;0.74;100.00;98087.69;4940378;28;20770;-83
2023/03/10 02:21:24;;;;;;;15.60;8.53;;;;;;;0.73;100.00;98079.00;4950477;28;20212;-83
2023/03/10 02:23:59;;;;;;;15.10;9.47;;;;;;;0.74;100.00;98064.13;4954488;28;20659;-83
2023/03/10 02:26:38;;;;;;;16.27;9.10;;;;;;;0.75;100.00;98058.78;4953991;28;20220;-83
2023/03/10 02:29:11;;;;;;;17.60;9.87;;;;;;;0.76;100.00;98059.63;4952620;28;20575;-83
2023/03/10 02:31:38;;;;;;;18.83;10.03;;;;;;;0.73;100.00;98046.72;4951115;28;20580;-83
2023/03/10 02:34:05;;;;;;;15.53;8.77;;;;;;;0.75;100.00;98039.59;4946608;28;20591;-82
2023/03/10 02:36:32;;;;;;;16.43;9.97;;;;;;;0.74;100.00;98044.00;4946023;28;20696;-83
2023/03/10 02:38:59;;;;;;;19.33;9.93;;;;;;;0.74;100.00;98033.53;4947296;28;20225;-83
2023/03/10 02:41:30;;;;;;;17.90;10.23;;;;;;;0.75;100.00;98034.38;4947370;28;20216;-83
2023/03/10 02:43:59;;;;;;;17.23;10.47;;;;;;;0.75;100.00;98023.88;4944143;28;20216;-83
2023/03/10 02:46:28;;;;;;;17.23;9.83;;;;;;;0.76;100.00;98015.09;4948874;28;20263;-83
2023/03/10 02:48:58;;;;;;;17.77;10.20;;;;;;;0.75;100.00;98010.78;4943389;28;20290;-84
2023/03/10 02:51:29;;;;;;;19.70;10.27;;;;;;;0.76;100.00;98015.09;4954727;28;20197;-84
2023/03/10 02:53:56;;;;;;;18.27;10.93;;;;;;;0.75;100.00;97998.53;4951526;28;20206;-83
2023/03/10 02:56:23;;;;;;;17.70;10.20;;;;;;;0.79;100.00;97993.94;4951881;29;20570;-84
2023/03/10 02:58:50;;;;;;;16.33;9.77;;;;;;;0.78;100.00;98005.34;4955645;28;20311;-84
2023/03/10 03:01:16;;;;;;;19.07;11.10;;;;;;;0.78;100.00;98003.56;4954640;28;20211;-83
2023/03/10 03:03:44;;;;;;;15.77;9.40;;;;;;;0.79;100.00;98000.03;4955926;28;20213;-84
2023/03/10 03:06:11;;;;;;;17.00;9.70;;;;;;;0.82;100.00;97998.97;4948895;28;20600;-83
2023/03/10 03:08:38;;;;;;;16.07;10.03;;;;;;;0.84;100.00;97986.63;4953267;28;21457;-84
2023/03/10 03:11:05;;;;;;;19.57;9.90;;;;;;;0.84;100.00;97984.84;4947590;28;20236;-85
2023/03/10 03:13:31;;;;;;;19.70;10.50;;;;;;;0.85;100.00;97973.41;4942928;28;20209;-84
2023/03/10 03:15:58;;;;;;;19.00;10.53;;;;;;;0.86;100.00;97974.25;4950428;28;20225;-85
2023/03/10 03:18:25;;;;;;;15.20;9.33;;;;;;;0.86;100.00;97963.78;4955999;28;20232;-85
2023/03/10 03:20:53;;;;;;;17.97;9.83;;;;;;;0.89;100.00;97958.34;4950439;28;20209;-84
2023/03/10 03:23:20;;;;;;;16.20;9.27;;;;;;;0.88;100.00;97936.53;4953408;28;20355;-85
2023/03/10 03:25:46;;;;;;;16.83;9.63;;;;;;;0.89;100.00;97951.31;4952933;28;20283;-85
2023/03/10 03:28:13;;;;;;;17.07;9.93;;;;;;;0.91;100.00;97956.44;4947876;28;20204;-84
2023/03/10 03:30:40;;;;;;;18.50;9.73;;;;;;;0.93;100.00;97954.56;4951057;28;20209;-85
2023/03/10 03:33:07;;;;;;;13.53;8.53;;;;;;;0.94;100.00;97948.38;4955240;28;20206;-84
2023/03/10 03:35:35;;;;;;;15.60;9.30;;;;;;;0.93;100.00;97936.22;4944284;28;20206;-85
2023/03/10 03:41:29;;;;;;;15.07;9.37;;;;;;;0.96;100.00;97922.91;4937359;28;20219;-84
2023/03/10 03:43:56;;;;;;;14.77;9.03;;;;;;;0.97;100.00;97919.34;4944757;28;20213;-85
2023/03/10 03:46:22;;;;;;;14.30;8.83;;;;;;;0.99;100.00;97927.94;4952523;28;20227;-85
2023/03/10 03:48:49;;;;;;;16.00;8.50;;;;;;;0.99;100.00;97920.06;4947350;28;20213;-86
2023/03/10 03:51:15;;;;;;;16.60;8.37;;;;;;;0.99;100.00;97922.69;4954695;28;20209;-85
2023/03/10 03:53:42;;;;;;;14.87;8.97;;;;;;;1.00;100.00;97922.59;4944152;28;20646;-84
2023/03/10 03:56:08;;;;;;;15.00;8.50;;;;;;;1.02;100.00;97925.13;4954893;28;20228;-85
2023/03/10 03:58:36;;;;;;;15.77;9.33;;;;;;;1.01;100.00;97911.19;4946617;28;20696;-85
2023/03/10 04:01:03;;;;;;;16.80;9.23;;;;;;;1.02;100.00;97902.38;4951587;28;20213;-85
2023/03/10 04:03:29;;;;;;;15.70;9.07;;;;;;;1.02;100.00;97912.00;4947263;28;20201;-85
2023/03/10 04:05:56;;;;;;;15.07;8.37;;;;;;;1.02;100.00;97909.41;4957728;28;20225;-86
2023/03/10 04:08:25;;;;;;;14.57;8.67;;;;;;;1.02;100.00;97906.78;4952760;28;20660;-86
2023/03/10 04:10:52;;;;;;;16.13;9.33;;;;;;;1.02;100.00;97912.00;4955158;28;20209;-84
2023/03/10 04:13:18;;;;;;;14.83;8.40;;;;;;;1.02;100.00;97912.00;4956757;28;20205;-84
2023/03/10 04:15:46;;;;;;;15.50;9.20;;;;;;;1.01;100.00;97911.19;4949779;28;20279;-85
2023/03/10 04:18:13;;;;;;;14.33;8.67;;;;;;;1.01;100.00;97916.41;4950853;28;20236;-85
2023/03/10 04:20:39;;;;;;;15.27;9.43;;;;;;;1.02;100.00;97932.97;4958634;28;20208;-85
2023/03/10 04:23:07;;;;;;;14.20;8.40;;;;;;;0.99;100.00;97925.31;4942282;28;20209;-86
2023/03/10 04:25:35;;;;;;;15.67;8.63;;;;;;;1.02;100.00;97917.25;4944685;28;20296;-85
2023/03/10 04:28:01;;;;;;;15.30;8.77;;;;;;;1.03;100.00;97911.06;4951345;28;20688;-85
2023/03/10 04:30:28;;;;;;;14.70;8.63;;;;;;;1.03;100.00;97918.94;4954346;28;20212;-85
2023/03/10 04:32:58;;;;;;;16.20;9.00;;;;;;;1.04;100.00;97912.75;4952947;28;20285;-86
2023/03/10 04:35:25;;;;;;;17.60;8.77;;;;;;;1.05;100.00;97909.19;4953870;28;20260;-86
2023/03/10 04:37:52;;;;;;;13.20;8.33;;;;;;;1.04;100.00;97905.72;4952863;28;20213;-85
2023/03/10 04:40:19;;;;;;;18.50;9.17;;;;;;;1.04;100.00;97900.50;4954052;28;20212;-85
2023/03/10 04:42:46;;;;;;;16.83;9.43;;;;;;;1.02;100.00;97905.00;4957630;28;20235;-86
2023/03/10 04:45:12;;;;;;;15.20;8.83;;;;;;;1.06;100.00;97913.50;4958433;28;20263;-85
2023/03/10 04:47:39;;;;;;;14.90;8.87;;;;;;;1.06;100.00;97913.50;4950837;28;20231;-86
2023/03/10 04:50:08;;;;;;;17.20;9.77;;;;;;;1.07;100.00;97915.16;4954158;28;20740;-85
2023/03/10 04:52:34;;;;;;;17.77;9.50;;;;;;;1.08;100.00;97900.25;4951414;28;20205;-84
2023/03/10 04:55:01;;;;;;;16.43;9.73;;;;;;;1.09;100.00;97900.16;4962407;28;20216;-85
2023/03/10 04:57:29;;;;;;;17.33;9.90;;;;;;;1.08;100.00;97902.88;4952757;28;20233;-85
2023/03/10 04:59:56;;;;;;;16.87;9.50;;;;;;;1.09;100.00;97896.69;4957726;28;20229;-84
2023/03/10 05:02:22;;;;;;;16.10;9.47;;;;;;;1.09;100.00;97889.66;4949733;28;20204;-85
2023/03/10 05:04:49;;;;;;;15.70;9.37;;;;;;;1.09;100.00;97889.66;4955787;28;20672;-86
2023/03/10 05:07:17;;;;;;;20.03;9.47;;;;;;;1.09;100.00;97894.06;4952701;28;20284;-86
2023/03/10 05:09:43;;;;;;;16.77;9.47;;;;;;;1.10;100.00;97891.34;4955278;28;20242;-85
2023/03/10 05:12:13;;;;;;;21.10;10.73;;;;;;;1.08;100.00;97895.00;4949827;28;20220;-86
2023/03/10 05:14:39;;;;;;;18.97;9.60;;;;;;;1.11;100.00;97905.28;4955101;28;20572;-85
2023/03/10 05:17:06;;;;;;;18.33;10.27;;;;;;;1.11;100.00;97905.28;4958184;28;20732;-86
2023/03/10 05:19:34;;;;;;;19.80;10.60;;;;;;;1.10;100.00;97893.13;4954790;28;20221;-87
2023/03/10 05:22:00;;;;;;;23.17;11.20;;;;;;;1.12;100.00;97899.94;4954453;28;20206;-86
2023/03/10 05:24:28;;;;;;;20.67;10.17;;;;;;;1.12;100.00;97899.09;4951654;28;20220;-85
2023/03/10 05:26:54;;;;;;;17.60;10.50;;;;;;;1.13;100.00;97908.66;4950640;28;21741;-85
2023/03/10 05:29:21;;;;;;;17.83;9.23;;;;;;;1.12;100.00;97905.19;4951472;28;20205;-85
2023/03/10 05:31:48;;;;;;;15.83;8.37;;;;;;;1.10;100.00;97928.03;4948692;28;20215;-85
2023/03/10 05:34:15;;;;;;;20.67;9.63;;;;;;;1.11;100.00;97929.72;4947396;28;20208;-85
2023/03/10 05:36:41;;;;;;;17.47;9.17;;;;;;;1.12;100.00;97931.41;4954457;28;20308;-85
2023/03/10 05:39:09;;;;;;;16.27;8.77;;;;;;;1.15;100.00;97930.34;4947719;28;20228;-85
2023/03/10 05:41:38;;;;;;;19.00;9.20;;;;;;;1.17;100.00;97929.31;4950093;28;20205;-86
2023/03/10 05:44:04;;;;;;;17.57;9.23;;;;;;;1.21;100.00;97924.69;4950271;28;20282;-85
2023/03/10 05:46:31;;;;;;;19.23;9.47;;;;;;;1.24;100.00;97924.50;4943784;28;20730;-86
2023/03/10 05:48:57;;;;;;;16.27;8.60;;;;;;;1.29;100.00;97931.06;4953103;28;20213;-86
2023/03/10 05:51:24;;;;;;;17.87;8.63;;;;;;;1.32;100.00;97936.13;4961131;28;20208;-86
2023/03/10 05:53:51;;;;;;;16.67;8.70;;;;;;;1.37;100.00;97928.78;4944938;29;20209;-85
2023/03/10 05:56:19;;;;;;;14.80;8.10;;;;;;;1.44;100.00;97934.41;4941280;28;20224;-86
2023/03/10 05:58:47;;;;;;;14.93;8.67;;;;;;;1.49;100.00;97939.34;4949057;28;20232;-85
2023/03/10 06:01:14;;;;;;;14.87;9.10;;;;;;;1.53;100.00;97941.66;4951004;28;20211;-85
2023/03/10 06:03:41;;;;;;;20.17;9.53;;;;;;;1.59;100.00;97943.03;4951933;28;20213;-85
2023/03/10 06:06:08;;;;;;;17.67;9.80;;;;;;;1.63;100.00;97940.06;4951343;28;20687;-86
2023/03/10 06:08:35;;;;;;;13.53;8.77;;;;;;;1.66;100.00;97944.25;4950688;29;20697;-86
2023/03/10 06:11:01;;;;;;;15.33;8.77;;;;;;;1.66;100.00;97952.97;4951742;28;20540;-86
2023/03/10 06:13:28;;;;;;;17.60;10.00;;;;;;;1.69;100.00;97959.78;4951811;28;20208;-86
2023/03/10 06:15:58;;;;;;;14.67;9.93;;;;;;;1.70;100.00;97964.94;4949782;29;20235;-86
2023/03/10 06:18:25;;;;;;;16.20;8.47;;;;;;;1.71;100.00;97965.78;4949782;29;20201;-84
2023/03/10 06:20:52;;;;;;;16.40;9.47;;;;;;;1.74;100.00;97968.19;4951039;28;20216;-85
2023/03/10 06:23:19;;;;;;;16.73;9.60;;;;;;;1.73;100.00;97969.13;4956324;28;20254;-85
2023/03/10 06:25:56;;;;;;;16.10;10.00;;;;;;;1.77;100.00;97972.38;4954206;28;20240;-86
2023/03/10 06:28:23;;;;;;;19.23;10.03;;;;;;;1.80;100.00;97978.22;4954796;28;20904;-86
2023/03/10 06:30:54;;;;;;;13.57;9.20;;;;;;;1.82;100.00;97978.97;4950352;28;20212;-85
2023/03/10 06:33:21;;;;;;;13.83;8.70;;;;;;;1.82;100.00;97986.00;4948787;28;20564;-85
2023/03/10 06:35:48;;;;;;;16.57;10.97;;;;;;;1.83;100.00;97999.00;4951076;29;20220;-89
2023/03/10 06:38:14;;;;;;;14.47;8.97;;;;;;;1.85;100.00;98002.38;4954152;29;20213;-89
2023/03/10 06:40:41;;;;;;;13.87;9.23;;;;;;;1.85;100.00;98006.78;4953906;29;20598;-88
2023/03/10 06:43:08;;;;;;;16.53;10.47;;;;;;;1.86;100.00;98003.22;4954551;29;20205;-88
2023/03/10 06:45:34;;;;;;;14.53;9.17;;;;;;;1.87;100.00;98007.50;4954945;29;20553;-88
2023/03/10 06:48:01;;;;;;;15.23;9.53;;;;;;;1.87;100.00;98015.38;4955277;29;20208;-89
2023/03/10 06:50:29;;;;;;;11.77;8.67;;;;;;;1.89;100.00;98024.84;4955035;29;20205;-89
2023/03/10 06:52:55;;;;;;;14.87;9.73;;;;;;;1.87;100.00;98021.47;4952814;28;20213;-89
2023/03/10 06:55:22;;;;;;;12.03;8.33;;;;;;;1.86;100.00;98019.78;4935718;29;20216;-89
2023/03/10 06:57:48;;;;;;;14.30;8.73;;;;;;;1.87;100.00;98026.72;4935739;29;20243;-88
2023/03/10 07:00:17;;;;;;;14.70;9.27;;;;;;;1.87;100.00;98026.72;4935532;29;20237;-88
2023/03/10 07:02:43;;;;;;;12.53;8.43;;;;;;;1.87;100.00;98026.72;4935570;29;20309;-89
2023/03/10 07:05:11;;;;;;;12.57;8.03;;;;;;;1.83;100.00;98022.63;4935849;29;20216;-89
2023/03/10 07:07:39;;;;;;;12.53;8.73;;;;;;;1.83;100.00;98025.25;4935756;29;20224;-89
2023/03/10 07:10:07;;;;;;;12.07;7.43;;;;;;;1.84;100.00;98021.69;4935924;29;20312;-89
2023/03/10 07:12:34;;;;;;;12.50;7.50;;;;;;;1.83;100.00;98029.66;4935737;29;20202;-89
2023/03/10 07:15:01;;;;;;;13.20;7.93;;;;;;;1.83;100.00;98035.75;4938198;29;20304;-89
2023/03/10 07:17:27;;;;;;;12.10;8.20;;;;;;;1.85;100.00;98033.88;4955192;29;20613;-89
2023/03/10 07:19:54;;;;;;;13.47;8.00;;;;;;;1.84;100.00;98034.81;4954877;29;20229;-89
2023/03/10 07:22:21;;;;;;;12.70;8.10;;;;;;;1.83;100.00;98041.00;4955552;29;20287;-88
2023/03/10 07:24:49;;;;;;;10.83;7.20;;;;;;;1.82;100.00;98041.94;4955048;29;20321;-89
2023/03/10 07:27:17;;;;;;;11.23;7.17;;;;;;;1.81;100.00;98048.13;4954835;29;20328;-89
2023/03/10 07:29:44;;;;;;;12.00;7.00;;;;;;;1.85;100.00;98048.78;4946830;29;20206;-89
2023/03/10 07:32:11;;;;;;;14.97;7.57;;;;;;;1.84;100.00;98047.09;4935875;29;20277;-89
2023/03/10 07:34:37;;;;;;;10.30;6.80;;;;;;;1.87;100.00;98052.13;4935548;29;20217;-89
2023/03/10 07:37:04;;;;;;;10.73;6.77;;;;;;;1.87;100.00;98055.59;4942657;29;20229;-88
2023/03/10 07:39:30;;;;;;;9.47;6.67;;;;;;;1.87;100.00;98052.97;4935331;29;20234;-88
2023/03/10 07:41:58;;;;;;;11.23;7.47;;;;;;;1.88;100.00;98051.19;4952863;29;20204;-88
2023/03/10 07:44:25;;;;;;;10.93;7.60;;;;;;;1.90;100.00;98072.91;4940713;29;20268;-89
2023/03/10 07:46:51;;;;;;;10.60;7.33;;;;;;;1.90;100.00;98068.50;4951999;29;20227;-88
2023/03/10 07:49:18;;;;;;;10.93;7.30;;;;;;;1.90;100.00;98084.25;4942347;29;20292;-88
2023/03/10 07:51:45;;;;;;;10.47;7.20;;;;;;;1.89;100.00;98076.50;4944562;29;20847;-88
2023/03/10 07:54:12;;;;;;;10.03;7.00;;;;;;;1.90;100.00;98076.38;4946569;28;20201;-88
2023/03/10 07:56:39;;;;;;;11.80;7.70;;;;;;;1.90;100.00;98084.25;4949975;28;20239;-88
2023/03/10 07:59:07;;;;;;;12.43;7.50;;;;;;;1.90;100.00;98079.00;4942992;29;20683;-88
2023/03/10 08:01:33;;;;;;;9.90;7.00;;;;;;;1.92;100.00;98085.00;4935103;29;20205;-88
2023/03/10 08:04:00;;;;;;;9.67;7.27;;;;;;;1.95;100.00;98095.28;4947085;28;20216;-88
2023/03/10 08:06:29;;;;;;;10.27;7.10;;;;;;;1.98;100.00;98108.19;4942635;29;20596;-86
2023/03/10 08:08:56;;;;;;;9.40;6.83;;;;;;;1.98;100.00;98105.56;4941997;28;20278;-85
2023/03/10 08:11:23;;;;;;;11.17;7.30;;;;;;;2.00;100.00;98105.44;4948502;28;20723;-85
2023/03/10 08:13:50;;;;;;;9.43;6.77;;;;;;;2.02;100.00;98112.28;4945502;28;20622;-86
2023/03/10 08:16:20;;;;;;;10.63;7.23;;;;;;;2.02;100.00;98104.41;4941440;28;20723;-86
2023/03/10 08:18:48;;;;;;;10.73;7.23;;;;;;;2.03;100.00;98118.38;4953411;28;20209;-85
2023/03/10 08:21:15;;;;;;;10.87;6.97;;;;;;;2.02;100.00;98122.78;4946558;28;20222;-85
2023/03/10 08:23:41;;;;;;;10.07;7.27;;;;;;;2.06;100.00;98126.03;4949904;29;20212;-85
2023/03/10 08:26:12;;;;;;;10.93;7.60;;;;;;;2.06;100.00;98132.13;4945891;28;20226;-86
2023/03/10 08:28:39;;;;;;;9.97;7.03;;;;;;;2.07;100.00;98122.47;4939111;28;20214;-88
2023/03/10 08:31:09;;;;;;;10.13;7.23;;;;;;;2.09;100.00;98125.81;4942282;28;20556;-87
2023/03/10 08:33:38;;;;;;;11.60;8.10;;;;;;;2.12;100.00;98130.03;4943132;28;20206;-87
2023/03/10 08:36:07;;;;;;;10.47;6.93;;;;;;;2.13;100.00;98126.47;4948706;28;20624;-88
2023/03/10 08:38:34;;;;;;;10.30;7.30;;;;;;;2.13;100.00;98129.09;4939982;28;20589;-86
2023/03/10 08:41:09;;;;;;;7.60;5.70;;;;;;;2.14;100.00;98120.28;4947042;28;20228;-87
2023/03/10 08:43:35;;;;;;;7.00;5.13;;;;;;;2.14;100.00;98117.63;4948308;28;20228;-87
2023/03/10 08:46:02;;;;;;;5.47;4.47;;;;;;;2.15;100.00;98109.63;4953343;28;20232;-86
2023/03/10 08:48:29;;;;;;;7.73;5.30;;;;;;;2.17;100.00;98118.25;4957229;28;20204;-85
2023/03/10 08:50:57;;;;;;;7.10;4.70;;;;;;;2.21;100.00;98124.13;4948718;28;20201;-86
2023/03/10 08:53:24;;;;;;;6.53;5.30;;;;;;;2.22;100.00;98126.66;4965595;28;20263;-85
2023/03/10 08:55:51;;;;;;;8.07;5.73;;;;;;;2.23;100.00;98132.75;4964789;28;20240;-85
2023/03/10 08:58:17;;;;;;;12.90;8.60;;;;;;;2.25;100.00;98128.22;4967491;28;20208;-85
2023/03/10 09:00:44;;;;;;;13.53;8.27;;;;;;;2.25;100.00;98125.59;4952984;28;20240;-85
2023/03/10 09:03:11;;;;;;;14.53;9.47;;;;;;;2.26;100.00;98129.91;4946002;28;20210;-83
2023/03/10 09:05:37;;;;;;;15.83;8.90;;;;;;;2.28;100.00;98142.00;4952287;28;20668;-84
2023/03/10 09:08:06;;;;;;;19.30;9.10;;;;;;;2.29;100.00;98140.22;4956420;28;20209;-84
2023/03/10 09:10:33;;;;;;;16.27;9.50;;;;;;;2.30;100.00;98141.88;4956276;28;20201;-84
2023/03/10 09:13:03;;;;;;;17.23;9.10;;;;;;;2.29;100.00;98141.03;4956457;28;20390;-85
2023/03/10 09:15:29;;;;;;;14.83;8.27;;;;;;;2.31;100.00;98130.44;4959553;28;20209;-85
2023/03/10 09:17:56;;;;;;;14.23;7.43;;;;;;;2.31;100.00;98130.44;4956837;28;20209;-85
2023/03/10 09:20:25;;;;;;;11.93;7.93;;;;;;;2.30;100.00;98136.63;4959913;28;20307;-85
2023/03/10 09:22:52;;;;;;;11.07;7.13;;;;;;;2.32;100.00;98132.97;4950853;29;20608;-85
2023/03/10 09:25:20;;;;;;;12.73;6.73;;;;;;;2.32;100.00;98146.09;4951196;28;20209;-84
2023/03/10 09:27:46;;;;;;;9.30;5.93;;;;;;;2.32;100.00;98138.22;4954441;29;20228;-84
2023/03/10 09:30:14;;;;;;;10.53;6.33;;;;;;;2.32;100.00;98163.63;4957532;29;20209;-85
2023/03/10 09:32:43;;;;;;;11.57;5.50;;;;;;;2.31;100.00;98159.31;4953161;29;20554;-85
2023/03/10 09:35:10;;;;;;;7.23;4.67;;;;;;;2.30;100.00;98152.41;4955562;28;20212;-84
2023/03/10 09:37:37;;;;;;;7.73;5.33;;;;;;;2.30;100.00;98160.28;4949274;28;20236;-84
2023/03/10 09:40:06;;;;;;;5.43;4.93;;;;;;;2.30;100.00;98147.13;4957074;28;20244;-84
2023/03/10 09:42:39;;;;;;;7.13;5.00;;;;;;;2.32;100.00;98153.13;4945869;29;20262;-84
2023/03/10 09:45:39;;;;;;;7.50;5.10;;;;;;;2.34;100.00;98145.97;4959439;28;20205;-84
2023/03/10 09:48:27;;;;;;;5.90;5.00;;;;;;;2.37;100.00;98133.44;4946965;29;20216;-84
2023/03/10 09:50:55;;;;;;;7.00;5.83;;;;;;;2.40;100.00;98133.25;4942447;29;20201;-84
2023/03/10 09:53:34;;;;;;;8.57;5.50;;;;;;;2.42;100.00;98143.66;4950471;29;20265;-85
2023/03/10 09:56:00;;;;;;;6.83;5.47;;;;;;;2.43;100.00;98135.66;4948645;29;20735;-84
2023/03/10 09:58:33;;;;;;;7.03;5.67;;;;;;;2.47;100.00;98141.53;4949942;28;20206;-84
2023/03/10 10:01:00;;;;;;;7.90;5.37;;;;;;;2.49;100.00;98144.06;4947443;29;20217;-83
2023/03/10 10:03:32;;;;;;;7.40;5.57;;;;;;;2.50;100.00;98141.34;4944298;28;20206;-84
2023/03/10 10:06:00;;;;;;;7.73;5.80;;;;;;;2.52;100.00;98141.19;4950861;28;20232;-83
2023/03/10 10:08:30;;;;;;;6.47;5.27;;;;;;;2.55;100.00;98146.25;4947481;29;20217;-84
2023/03/10 10:10:58;;;;;;;8.27;6.20;;;;;;;2.56;100.00;98148.75;4949444;28;20208;-83
2023/03/10 10:13:29;;;;;;;8.80;6.67;;;;;;;2.56;100.00;98154.03;4945369;29;20584;-84
2023/03/10 10:16:00;;;;;;;8.90;7.17;;;;;;;2.58;100.00;98154.75;4963707;28;20283;-84
2023/03/10 10:18:38;;;;;;;10.07;7.87;;;;;;;2.57;100.00;98152.22;4976616;28;20251;-84
2023/03/10 10:21:11;;;;;;;11.67;7.87;;;;;;;2.58;100.00;98152.13;4976912;28;20228;-84
2023/03/10 10:23:42;;;;;;;10.70;7.37;;;;;;;2.59;100.00;98152.97;4977236;28;20208;-84
2023/03/10 10:26:12;;;;;;;9.53;7.43;;;;;;;2.62;100.00;98150.97;4969636;28;20263;-84
2023/03/10 10:28:43;;;;;;;7.30;6.13;;;;;;;2.63;100.00;98160.53;4957485;29;20220;-85
2023/03/10 10:31:16;;;;;;;8.60;6.90;;;;;;;2.64;100.00;98156.13;4958979;29;20197;-85
2023/03/10 10:33:57;;;;;;;6.30;4.90;;;;;;;2.66;100.00;98152.44;4958452;29;20213;-85
2023/03/10 10:36:25;;;;;;;5.27;4.77;;;;;;;2.68;100.00;98149.69;4957654;29;20646;-85
2023/03/10 10:38:54;;;;;;;8.43;5.63;;;;;;;2.68;100.00;98155.81;4958089;29;20205;-84
2023/03/10 10:41:23;;;;;;;5.30;4.00;;;;;;;2.70;100.00;98156.50;4957526;29;20228;-85
2023/03/10 10:43:52;;;;;;;3.13;2.83;;;;;;;2.72;100.00;98159.88;4957697;29;20209;-85
2023/03/10 10:46:25;;;;;;;3.73;3.07;;;;;;;2.73;100.00;98166.81;4957304;29;20699;-85
2023/03/10 10:49:02;;;;;;;4.03;2.90;;;;;;;2.74;100.00;98163.22;4957075;29;20189;-84
2023/03/10 10:51:31;;;;;;;3.20;2.77;;;;;;;2.76;100.00;98166.59;4957094;29;20200;-84
2023/03/10 10:53:59;;;;;;;9.40;3.13;;;;;;;2.78;100.00;98161.22;4957618;29;20684;-85
2023/03/10 10:56:28;;;;;;;3.53;3.00;;;;;;;2.82;100.00;98161.84;4956812;28;20228;-84
2023/03/10 10:59:04;;;;;;;4.70;3.10;;;;;;;2.85;100.00;98157.22;4956569;29;20208;-84
2023/03/10 11:01:47;;;;;;;3.20;2.77;;;;;;;2.89;100.00;98161.28;4956516;29;20239;-86
2023/03/10 11:04:14;;;;;;;2.93;2.67;;;;;;;2.90;100.00;98162.97;4956357;29;20567;-86
2023/03/10 11:06:40;;;;;;;3.47;2.67;;;;;;;2.94;100.00;98160.97;4956366;29;20234;-85
2023/03/10 11:09:12;;;;;;;3.40;2.63;;;;;;;2.95;100.00;98160.84;4955707;29;20217;-85
2023/03/10 11:11:45;;;;;;;3.27;2.50;;;;;;;2.98;100.00;98162.44;4954193;28;20192;-85
2023/03/10 11:14:32;;;;;;;3.03;2.50;;;;;;;2.99;100.00;98158.84;4953024;29;20205;-85
2023/03/10 11:17:03;;;;;;;3.33;2.40;;;;;;;2.99;100.00;98162.31;4936942;29;20240;-87
2023/03/10 11:19:34;;;;;;;3.70;2.50;;;;;;;3.01;100.00;98154.34;4936929;29;20244;-85
2023/03/10 11:22:07;;;;;;;2.30;1.97;;;;;;;3.02;100.00;98150.75;4945719;29;20209;-86
2023/03/10 11:24:39;;;;;;;2.03;1.63;;;;;;;3.03;100.00;98155.91;4945500;29;20194;-85
2023/03/10 11:27:13;;;;;;;2.50;1.97;;;;;;;3.05;100.00;98151.34;4941943;29;20244;-85
2023/03/10 11:29:58;;;;;;;2.93;2.50;;;;;;;3.10;100.00;98146.59;4938923;29;20699;-85
2023/03/10 11:32:33;;;;;;;3.13;2.40;;;;;;;3.14;100.00;98147.22;4938124;29;20201;-83
2023/03/10 11:35:10;;;;;;;3.30;2.47;;;;;;;3.18;100.00;98151.31;4958262;28;20212;-84